Time;durP1;ratioP1;P1;durP2;ratioP2;P2;SDS_P1;SDS_P2;PMS_P1;PMS_P2;Temp;Humidity;BMP_temperature;BMP_pressure;BME280_temperature;BME280_humidity;BME280_pressure;Samples;Min_cycle;Max_cycle;Signal;HPM_P1;HPM_P2
2022/10/14 00:00:09;;;;;;;11.63;9.00;;;;;;;;;;5064337;28;20213;-62
2022/10/14 00:02:36;;;;;;;12.13;8.03;;;;;;;;;;5083766;28;20237;-63
2022/10/14 00:05:24;;;;;;;12.03;8.10;;;;;;;;;;5067160;28;20208;-63
2022/10/14 00:07:51;;;;;;;9.17;8.03;;;;;;;;;;5062671;28;20221;-61
2022/10/14 00:10:18;;;;;;;8.90;8.00;;;;;;;;;;5065970;28;20320;-61
2022/10/14 00:12:46;;;;;;;10.88;8.40;;;;;;;;;;5063671;28;20320;-64
2022/10/14 00:15:14;;;;;;;9.60;7.65;;;;;;;;;;5083288;28;20555;-62
2022/10/14 00:17:41;;;;;;;10.88;8.50;;;;;;;;;;5054898;28;20689;-62
2022/10/14 00:20:08;;;;;;;10.80;7.90;;;;;;;;;;5086061;28;20201;-61
2022/10/14 00:22:36;;;;;;;13.90;8.50;;;;;;;;;;5067248;28;20278;-64
2022/10/14 00:25:03;;;;;;;11.48;7.90;;;;;;;;;;5066587;28;20264;-63
2022/10/14 00:27:30;;;;;;;12.27;8.40;;;;;;;;;;5067355;28;20284;-63
2022/10/14 00:29:58;;;;;;;11.83;7.33;;;;;;;;;;5074629;28;20268;-61
2022/10/14 00:32:25;;;;;;;11.43;7.50;;;;;;;;;;5078018;28;20345;-63
2022/10/14 00:34:52;;;;;;;12.20;7.63;;;;;;;;;;5067153;28;20300;-61
2022/10/14 00:37:20;;;;;;;11.10;7.70;;;;;;;;;;5083706;28;20225;-62
2022/10/14 00:39:47;;;;;;;8.97;7.23;;;;;;;;;;5064982;28;20278;-62
2022/10/14 00:42:20;;;;;;;10.50;7.67;;;;;;;;;;5068557;28;20717;-62
2022/10/14 00:44:51;;;;;;;9.97;7.47;;;;;;;;;;5066143;28;20237;-61
2022/10/14 00:47:19;;;;;;;11.97;7.53;;;;;;;;;;5054747;28;20214;-63
2022/10/14 00:49:47;;;;;;;8.77;7.73;;;;;;;;;;5051057;28;20210;-62
2022/10/14 00:52:16;;;;;;;12.43;8.50;;;;;;;;;;5058881;28;20284;-64
2022/10/14 00:54:52;;;;;;;15.80;9.27;;;;;;;;;;5055916;28;20578;-62
2022/10/14 00:57:19;;;;;;;13.07;9.63;;;;;;;;;;5056832;28;20222;-64
2022/10/14 00:59:47;;;;;;;11.07;8.90;;;;;;;;;;5057135;28;20604;-63
2022/10/14 01:02:15;;;;;;;15.03;9.87;;;;;;;;;;5049373;28;20229;-64
2022/10/14 01:04:42;;;;;;;12.53;9.50;;;;;;;;;;5069130;28;20201;-62
2022/10/14 01:07:15;;;;;;;11.07;9.23;;;;;;;;;;5063604;28;20248;-63
2022/10/14 01:09:46;;;;;;;10.50;9.30;;;;;;;;;;5063799;28;21437;-64
2022/10/14 01:12:17;;;;;;;11.33;9.03;;;;;;;;;;5060061;28;20670;-62
2022/10/14 01:15:14;;;;;;;18.30;9.80;;;;;;;;;;5067620;28;20208;-63
2022/10/14 01:17:54;;;;;;;12.30;9.37;;;;;;;;;;5062762;28;20221;-62
2022/10/14 01:20:41;;;;;;;11.33;8.93;;;;;;;;;;5081748;28;20239;-63
2022/10/14 01:23:21;;;;;;;14.47;9.53;;;;;;;;;;5060202;28;20226;-63
2022/10/14 01:26:07;;;;;;;13.63;9.93;;;;;;;;;;5062402;28;20292;-61
2022/10/14 01:28:43;;;;;;;12.67;9.63;;;;;;;;;;5065782;28;20279;-61
2022/10/14 01:31:13;;;;;;;13.50;10.00;;;;;;;;;;5068183;28;20211;-63
2022/10/14 01:33:43;;;;;;;13.03;8.77;;;;;;;;;;5066024;28;20285;-63
2022/10/14 01:36:21;;;;;;;9.90;8.60;;;;;;;;;;5066300;28;20205;-62
2022/10/14 01:38:53;;;;;;;13.07;9.70;;;;;;;;;;5065827;28;20311;-63
2022/10/14 01:41:23;;;;;;;12.13;8.97;;;;;;;;;;5067871;28;20231;-62
2022/10/14 01:43:51;;;;;;;11.20;9.47;;;;;;;;;;5066053;28;20261;-63
2022/10/14 01:46:21;;;;;;;12.50;9.50;;;;;;;;;;5081455;28;20229;-63
2022/10/14 01:48:51;;;;;;;12.77;10.20;;;;;;;;;;5066033;28;20978;-61
2022/10/14 01:51:22;;;;;;;11.03;9.80;;;;;;;;;;5059584;28;20202;-62
2022/10/14 01:54:01;;;;;;;10.37;9.00;;;;;;;;;;5062552;28;20292;-63
2022/10/14 01:56:30;;;;;;;14.67;9.90;;;;;;;;;;5056713;28;20580;-62
2022/10/14 01:58:59;;;;;;;13.07;9.30;;;;;;;;;;5055216;28;20820;-62
2022/10/14 02:01:27;;;;;;;14.57;9.20;;;;;;;;;;5057221;28;20208;-64
2022/10/14 02:03:54;;;;;;;13.27;9.10;;;;;;;;;;5064784;28;20229;-64
2022/10/14 02:06:25;;;;;;;11.57;10.20;;;;;;;;;;5061070;28;20241;-63
2022/10/14 02:09:01;;;;;;;12.13;9.60;;;;;;;;;;5058181;28;20264;-64
2022/10/14 02:11:33;;;;;;;13.07;9.70;;;;;;;;;;5071607;28;20215;-61
2022/10/14 02:14:20;;;;;;;10.43;9.20;;;;;;;;;;5063691;28;20216;-62
2022/10/14 02:16:57;;;;;;;10.63;9.50;;;;;;;;;;5058035;28;20529;-63
2022/10/14 02:19:28;;;;;;;11.67;9.20;;;;;;;;;;5085280;28;20258;-64
2022/10/14 02:22:03;;;;;;;13.23;9.88;;;;;;;;;;5071205;28;20683;-64
2022/10/14 02:24:39;;;;;;;13.87;9.63;;;;;;;;;;5067945;28;20250;-61
2022/10/14 02:27:09;;;;;;;12.03;10.03;;;;;;;;;;5067944;28;20252;-63
2022/10/14 02:29:38;;;;;;;11.60;9.23;;;;;;;;;;5068238;28;20304;-63
2022/10/14 02:32:07;;;;;;;13.83;9.77;;;;;;;;;;5071134;28;20193;-63
2022/10/14 02:34:36;;;;;;;11.53;9.13;;;;;;;;;;5066890;28;20274;-63
2022/10/14 02:37:03;;;;;;;10.43;8.93;;;;;;;;;;5065969;28;20695;-63
2022/10/14 02:39:34;;;;;;;10.30;9.20;;;;;;;;;;5070051;28;20706;-62
2022/10/14 02:42:02;;;;;;;11.40;9.10;;;;;;;;;;5061903;28;20284;-64
2022/10/14 02:44:29;;;;;;;14.85;11.25;;;;;;;;;;5064736;28;20208;-63
2022/10/14 02:46:57;;;;;;;17.03;12.40;;;;;;;;;;5064446;28;20233;-61
2022/10/14 02:49:24;;;;;;;24.50;18.43;;;;;;;;;;5064549;28;20663;-61
2022/10/14 02:51:52;;;;;;;15.00;12.07;;;;;;;;;;5069691;28;20617;-63
2022/10/14 02:54:19;;;;;;;10.73;8.93;;;;;;;;;;5069593;28;20693;-62
2022/10/14 02:56:46;;;;;;;9.63;8.60;;;;;;;;;;5065360;28;20213;-62
2022/10/14 02:59:13;;;;;;;11.20;9.27;;;;;;;;;;5060644;28;20637;-62
2022/10/14 03:01:41;;;;;;;10.23;8.30;;;;;;;;;;5088429;28;20198;-62
2022/10/14 03:04:08;;;;;;;10.70;9.60;;;;;;;;;;5066429;28;20221;-61
2022/10/14 03:06:35;;;;;;;13.00;9.23;;;;;;;;;;5067217;28;20280;-63
2022/10/14 03:09:03;;;;;;;10.87;8.30;;;;;;;;;;5069322;28;20233;-62
2022/10/14 03:11:30;;;;;;;10.07;8.77;;;;;;;;;;5075268;28;20247;-62
2022/10/14 03:13:58;;;;;;;9.23;8.10;;;;;;;;;;5073375;28;20907;-61
2022/10/14 03:16:25;;;;;;;9.27;7.73;;;;;;;;;;5069187;28;20298;-62
2022/10/14 03:18:52;;;;;;;11.77;7.83;;;;;;;;;;5071108;28;20328;-60
2022/10/14 03:21:19;;;;;;;10.63;7.97;;;;;;;;;;5070561;28;20202;-62
2022/10/14 03:23:47;;;;;;;11.10;7.93;;;;;;;;;;5061805;28;20253;-61
2022/10/14 03:26:14;;;;;;;9.47;7.93;;;;;;;;;;5068220;28;20292;-61
2022/10/14 03:28:41;;;;;;;9.50;7.97;;;;;;;;;;5061306;28;20216;-63
2022/10/14 03:31:09;;;;;;;11.37;8.40;;;;;;;;;;5066633;28;20202;-62
2022/10/14 03:33:36;;;;;;;10.10;7.83;;;;;;;;;;5069978;28;20208;-62
2022/10/14 03:36:07;;;;;;;11.07;8.00;;;;;;;;;;5065100;28;20251;-62
2022/10/14 03:38:34;;;;;;;14.25;11.23;;;;;;;;;;5060855;28;20598;-64
2022/10/14 03:41:02;;;;;;;15.30;12.17;;;;;;;;;;5067014;28;20682;-64
2022/10/14 03:43:29;;;;;;;12.60;9.43;;;;;;;;;;5058869;28;20221;-64
2022/10/14 03:45:57;;;;;;;11.97;8.67;;;;;;;;;;5062968;28;20524;-63
2022/10/14 03:48:24;;;;;;;10.27;8.20;;;;;;;;;;5078943;28;20233;-63
2022/10/14 03:50:52;;;;;;;9.10;8.13;;;;;;;;;;5063502;28;20318;-61
2022/10/14 03:53:19;;;;;;;10.50;8.80;;;;;;;;;;5065688;28;20232;-61
2022/10/14 03:55:46;;;;;;;9.67;8.13;;;;;;;;;;5076694;28;20371;-62
2022/10/14 03:58:13;;;;;;;9.83;8.10;;;;;;;;;;5064609;28;20226;-62
2022/10/14 04:00:41;;;;;;;11.77;8.07;;;;;;;;;;5068356;28;20292;-62
2022/10/14 04:03:08;;;;;;;10.20;7.53;;;;;;;;;;5063282;28;21284;-61
2022/10/14 04:05:35;;;;;;;8.57;7.67;;;;;;;;;;5067438;28;20209;-62
2022/10/14 04:08:03;;;;;;;11.50;7.93;;;;;;;;;;5087049;28;20226;-62
2022/10/14 04:10:30;;;;;;;11.17;7.23;;;;;;;;;;5068208;28;20292;-62
2022/10/14 04:12:58;;;;;;;8.03;7.10;;;;;;;;;;5063728;28;20229;-61
2022/10/14 04:15:25;;;;;;;10.33;8.00;;;;;;;;;;5058653;28;20565;-61
2022/10/14 04:17:53;;;;;;;11.23;7.00;;;;;;;;;;5066660;28;20746;-61
2022/10/14 04:20:20;;;;;;;8.73;7.70;;;;;;;;;;5064134;28;20697;-63
2022/10/14 04:22:48;;;;;;;11.43;8.03;;;;;;;;;;5079324;28;20287;-62
2022/10/14 04:25:15;;;;;;;11.23;7.67;;;;;;;;;;5072016;28;20287;-62
2022/10/14 04:27:43;;;;;;;10.97;7.80;;;;;;;;;;5058301;28;20304;-63
2022/10/14 04:30:11;;;;;;;10.67;7.47;;;;;;;;;;5061792;28;20220;-62
2022/10/14 04:32:38;;;;;;;12.70;8.40;;;;;;;;;;5048116;28;20201;-61
2022/10/14 04:35:06;;;;;;;11.00;8.73;;;;;;;;;;5052227;28;20256;-61
2022/10/14 04:37:33;;;;;;;11.80;9.20;;;;;;;;;;5056187;28;20751;-63
2022/10/14 04:40:01;;;;;;;12.67;10.30;;;;;;;;;;5057622;28;20263;-61
2022/10/14 04:42:28;;;;;;;15.87;10.50;;;;;;;;;;5061311;28;20296;-63
2022/10/14 04:44:55;;;;;;;14.27;10.20;;;;;;;;;;5056802;28;20240;-62
2022/10/14 04:47:22;;;;;;;14.73;10.03;;;;;;;;;;5060332;28;20318;-63
2022/10/14 04:49:50;;;;;;;13.97;9.83;;;;;;;;;;5063736;28;20259;-60
2022/10/14 04:52:17;;;;;;;12.90;9.47;;;;;;;;;;5069851;28;20660;-63
2022/10/14 04:54:45;;;;;;;10.90;8.77;;;;;;;;;;5064783;28;20212;-62
2022/10/14 04:57:12;;;;;;;9.33;8.03;;;;;;;;;;5076110;28;20224;-62
2022/10/14 04:59:39;;;;;;;9.50;8.30;;;;;;;;;;5064903;28;20202;-62
2022/10/14 05:02:07;;;;;;;13.60;8.27;;;;;;;;;;5068476;28;20229;-61
2022/10/14 05:04:34;;;;;;;11.37;8.30;;;;;;;;;;5064760;28;22709;-62
2022/10/14 05:07:01;;;;;;;12.57;8.80;;;;;;;;;;5063977;28;20229;-62
2022/10/14 05:09:29;;;;;;;11.90;9.33;;;;;;;;;;5063567;28;20210;-62
2022/10/14 05:11:56;;;;;;;14.47;10.27;;;;;;;;;;5050593;28;20235;-62
2022/10/14 05:14:23;;;;;;;13.40;10.17;;;;;;;;;;5061131;28;20216;-62
2022/10/14 05:16:51;;;;;;;16.77;11.07;;;;;;;;;;5058796;28;20237;-61
2022/10/14 05:19:19;;;;;;;14.67;10.83;;;;;;;;;;5062534;28;20297;-63
2022/10/14 05:21:46;;;;;;;18.00;11.57;;;;;;;;;;5057406;28;20220;-62
2022/10/14 05:24:16;;;;;;;14.13;11.03;;;;;;;;;;5058642;28;20221;-62
2022/10/14 05:26:44;;;;;;;18.83;11.80;;;;;;;;;;5059039;28;20660;-62
2022/10/14 05:29:11;;;;;;;18.40;11.67;;;;;;;;;;5060676;28;20266;-62
2022/10/14 05:31:39;;;;;;;17.07;12.37;;;;;;;;;;5068138;28;20201;-62
2022/10/14 05:34:06;;;;;;;22.33;13.20;;;;;;;;;;5066001;28;20288;-63
2022/10/14 05:36:34;;;;;;;21.87;13.33;;;;;;;;;;5049631;28;20211;-63
2022/10/14 05:39:01;;;;;;;18.37;13.43;;;;;;;;;;5054132;28;20293;-63
2022/10/14 05:41:28;;;;;;;23.00;14.37;;;;;;;;;;5054836;28;20225;-63
2022/10/14 05:43:56;;;;;;;19.00;14.00;;;;;;;;;;5056122;28;20237;-63
2022/10/14 05:46:23;;;;;;;25.73;13.77;;;;;;;;;;5047749;28;20292;-63
2022/10/14 05:48:50;;;;;;;20.40;13.73;;;;;;;;;;5050044;28;20232;-63
2022/10/14 05:51:20;;;;;;;19.20;13.47;;;;;;;;;;5052286;28;20340;-61
2022/10/14 05:53:47;;;;;;;22.03;14.13;;;;;;;;;;5057149;28;20279;-64
2022/10/14 05:56:15;;;;;;;22.60;13.73;;;;;;;;;;5046346;28;20212;-63
2022/10/14 05:58:42;;;;;;;22.50;13.87;;;;;;;;;;5053483;28;20260;-63
2022/10/14 06:01:10;;;;;;;19.40;12.93;;;;;;;;;;5053437;28;20849;-63
2022/10/14 06:03:37;;;;;;;21.13;13.37;;;;;;;;;;5052727;28;20229;-62
2022/10/14 06:06:05;;;;;;;19.53;13.27;;;;;;;;;;5045962;28;20297;-61
2022/10/14 06:08:32;;;;;;;24.03;13.47;;;;;;;;;;5053265;28;20221;-63
2022/10/14 06:11:02;;;;;;;20.57;13.93;;;;;;;;;;5061191;28;20289;-63
2022/10/14 06:13:30;;;;;;;18.20;12.87;;;;;;;;;;5056435;28;20300;-63
2022/10/14 06:16:01;;;;;;;18.27;13.40;;;;;;;;;;5054579;28;20292;-63
2022/10/14 06:18:29;;;;;;;20.07;12.87;;;;;;;;;;5056684;28;20225;-62
2022/10/14 06:20:56;;;;;;;19.10;11.87;;;;;;;;;;5050842;28;20202;-63
2022/10/14 06:23:23;;;;;;;19.40;12.07;;;;;;;;;;5054985;28;20225;-62
2022/10/14 06:25:51;;;;;;;16.87;11.90;;;;;;;;;;5049475;28;20293;-63
2022/10/14 06:28:18;;;;;;;15.33;11.63;;;;;;;;;;5056385;28;20248;-63
2022/10/14 06:30:50;;;;;;;17.07;12.37;;;;;;;;;;5062907;28;20301;-63
2022/10/14 06:33:17;;;;;;;18.97;13.23;;;;;;;;;;5058321;28;20216;-63
2022/10/14 06:35:44;;;;;;;17.70;12.35;;;;;;;;;;5057798;28;20212;-63
2022/10/14 06:38:12;;;;;;;17.93;13.23;;;;;;;;;;5052651;28;20640;-63
2022/10/14 06:40:40;;;;;;;18.03;12.80;;;;;;;;;;5056375;28;20705;-63
2022/10/14 06:43:07;;;;;;;19.05;13.57;;;;;;;;;;5060276;28;20297;-63
2022/10/14 06:45:34;;;;;;;21.57;13.33;;;;;;;;;;5058361;28;20206;-63
2022/10/14 06:48:03;;;;;;;19.53;14.57;;;;;;;;;;5055718;28;20244;-63
2022/10/14 06:50:31;;;;;;;22.50;13.88;;;;;;;;;;5050203;28;20289;-62
2022/10/14 06:52:58;;;;;;;18.47;12.93;;;;;;;;;;5058028;28;20234;-62
2022/10/14 06:55:25;;;;;;;21.20;14.20;;;;;;;;;;5058411;28;20286;-63
2022/10/14 06:57:52;;;;;;;21.90;14.23;;;;;;;;;;5057440;28;20236;-62
2022/10/14 07:00:20;;;;;;;22.83;14.00;;;;;;;;;;5059664;28;20243;-62
2022/10/14 07:02:47;;;;;;;18.48;13.35;;;;;;;;;;5049002;28;20202;-63
2022/10/14 07:05:15;;;;;;;17.50;12.63;;;;;;;;;;5041563;28;20315;-63
2022/10/14 07:07:42;;;;;;;18.58;13.40;;;;;;;;;;5044828;28;20320;-62
2022/10/14 07:10:10;;;;;;;16.80;12.43;;;;;;;;;;5045702;28;20233;-63
2022/10/14 07:12:37;;;;;;;17.90;12.15;;;;;;;;;;5037130;28;20305;-62
2022/10/14 07:15:04;;;;;;;16.63;13.13;;;;;;;;;;5043998;28;20200;-63
2022/10/14 07:17:32;;;;;;;20.93;12.13;;;;;;;;;;5042657;28;20234;-62
2022/10/14 07:20:00;;;;;;;19.45;14.95;;;;;;;;;;5033903;28;20450;-63
2022/10/14 07:22:27;;;;;;;17.48;13.00;;;;;;;;;;5047257;28;20202;-63
2022/10/14 07:24:55;;;;;;;19.42;12.75;;;;;;;;;;5039251;28;21264;-62
2022/10/14 07:27:23;;;;;;;21.05;13.23;;;;;;;;;;5038855;28;20230;-61
2022/10/14 07:29:51;;;;;;;18.92;13.05;;;;;;;;;;5042750;28;20342;-61
2022/10/14 07:32:19;;;;;;;18.50;12.83;;;;;;;;;;5047230;28;20206;-63
2022/10/14 07:34:46;;;;;;;19.52;12.88;;;;;;;;;;5048185;28;20206;-62
2022/10/14 07:37:13;;;;;;;17.02;12.90;;;;;;;;;;5055209;28;20233;-61
2022/10/14 07:39:40;;;;;;;20.67;13.18;;;;;;;;;;5056763;28;21539;-60
2022/10/14 07:42:08;;;;;;;16.55;13.05;;;;;;;;;;5052502;28;20615;-62
2022/10/14 07:44:38;;;;;;;19.80;12.68;;;;;;;;;;5051169;28;20569;-61
2022/10/14 07:47:06;;;;;;;18.20;12.50;;;;;;;;;;5051300;28;20225;-62
2022/10/14 07:49:33;;;;;;;17.25;13.05;;;;;;;;;;5055564;28;20686;-62
2022/10/14 07:52:01;;;;;;;18.35;12.88;;;;;;;;;;5058700;28;20627;-61
2022/10/14 07:54:29;;;;;;;20.48;13.18;;;;;;;;;;5054981;28;20253;-61
2022/10/14 07:56:57;;;;;;;18.05;13.70;;;;;;;;;;5051125;28;20860;-61
2022/10/14 07:59:24;;;;;;;19.33;13.63;;;;;;;;;;5048643;28;20292;-61
2022/10/14 08:01:52;;;;;;;18.83;14.02;;;;;;;;;;5065218;28;20252;-63
2022/10/14 08:04:20;;;;;;;21.40;13.80;;;;;;;;;;5065291;28;20381;-62
2022/10/14 08:06:48;;;;;;;19.45;13.15;;;;;;;;;;5062050;28;20284;-62
2022/10/14 08:09:15;;;;;;;15.80;12.80;;;;;;;;;;5069431;28;20281;-61
2022/10/14 08:11:43;;;;;;;17.90;13.30;;;;;;;;;;5046225;28;20940;-62
2022/10/14 08:14:10;;;;;;;18.90;12.32;;;;;;;;;;5050046;28;20240;-64
2022/10/14 08:16:38;;;;;;;19.17;12.38;;;;;;;;;;5061286;28;20338;-61
2022/10/14 08:19:07;;;;;;;17.02;12.63;;;;;;;;;;5042325;28;20232;-62
2022/10/14 08:21:41;;;;;;;17.85;13.13;;;;;;;;;;5051952;28;20215;-62
2022/10/14 08:24:09;;;;;;;17.13;11.88;;;;;;;;;;5055625;28;20229;-62
2022/10/14 08:26:48;;;;;;;15.07;11.15;;;;;;;;;;5053740;28;20288;-63
2022/10/14 08:29:16;;;;;;;14.15;11.35;;;;;;;;;;5067363;28;20262;-63
2022/10/14 08:31:43;;;;;;;13.52;10.20;;;;;;;;;;5048873;28;20268;-62
2022/10/14 08:34:10;;;;;;;14.50;10.75;;;;;;;;;;5053019;28;20228;-62
2022/10/14 08:36:38;;;;;;;13.30;10.80;;;;;;;;;;5053396;28;20213;-63
2022/10/14 08:39:06;;;;;;;13.50;10.48;;;;;;;;;;5052001;28;20225;-61
2022/10/14 08:41:52;;;;;;;13.65;10.00;;;;;;;;;;5047517;28;20202;-62
2022/10/14 08:44:24;;;;;;;14.25;10.02;;;;;;;;;;5054916;28;20258;-61
2022/10/14 08:47:02;;;;;;;13.35;9.63;;;;;;;;;;5049615;28;20857;-63
2022/10/14 08:49:34;;;;;;;12.10;9.38;;;;;;;;;;5055730;28;20208;-63
2022/10/14 08:52:08;;;;;;;14.82;9.70;;;;;;;;;;5051072;28;20289;-63
2022/10/14 08:54:46;;;;;;;11.38;9.90;;;;;;;;;;5048606;28;20297;-63
2022/10/14 08:57:17;;;;;;;11.00;7.93;;;;;;;;;;5054863;28;20217;-61
2022/10/14 08:59:44;;;;;;;8.05;7.25;;;;;;;;;;5046988;28;20217;-62
2022/10/14 09:02:35;;;;;;;8.60;7.80;;;;;;;;;;5049979;28;20505;-62
2022/10/14 09:05:03;;;;;;;9.45;7.75;;;;;;;;;;5044546;28;20279;-62
2022/10/14 09:07:31;;;;;;;10.48;8.25;;;;;;;;;;5055157;28;20584;-62
2022/10/14 09:10:05;;;;;;;8.88;7.30;;;;;;;;;;5053835;28;20303;-62
2022/10/14 09:12:34;;;;;;;9.07;7.80;;;;;;;;;;5060658;28;20280;-62
2022/10/14 09:15:04;;;;;;;9.55;7.63;;;;;;;;;;5045293;28;20293;-62
2022/10/14 09:17:35;;;;;;;9.88;7.40;;;;;;;;;;5057141;28;20313;-63
2022/10/14 09:20:04;;;;;;;8.05;6.20;;;;;;;;;;5050980;28;20228;-63
2022/10/14 09:22:32;;;;;;;8.30;6.47;;;;;;;;;;5045473;28;20241;-63
2022/10/14 09:25:00;;;;;;;7.07;5.80;;;;;;;;;;5063990;28;20227;-62
2022/10/14 09:27:29;;;;;;;6.38;5.53;;;;;;;;;;5041983;28;20230;-64
2022/10/14 09:30:00;;;;;;;7.43;5.78;;;;;;;;;;5061336;28;20720;-63
2022/10/14 09:32:36;;;;;;;7.25;5.75;;;;;;;;;;5058518;28;20259;-62
2022/10/14 09:35:12;;;;;;;7.07;5.82;;;;;;;;;;5044653;28;20789;-61
2022/10/14 09:37:39;;;;;;;7.80;6.30;;;;;;;;;;5062543;28;20745;-61
2022/10/14 09:40:06;;;;;;;7.95;6.20;;;;;;;;;;5056229;28;20396;-64
2022/10/14 09:42:56;;;;;;;8.77;6.00;;;;;;;;;;5063990;28;20206;-61
2022/10/14 09:45:24;;;;;;;11.40;5.47;;;;;;;;;;5062491;28;20296;-61
2022/10/14 09:47:57;;;;;;;7.35;5.60;;;;;;;;;;5080103;28;20251;-62
2022/10/14 09:50:28;;;;;;;8.52;5.60;;;;;;;;;;5063254;28;20190;-61
2022/10/14 09:53:00;;;;;;;7.18;5.15;;;;;;;;;;5063499;28;20252;-63
2022/10/14 09:55:28;;;;;;;6.32;4.65;;;;;;;;;;5063308;28;20251;-62
2022/10/14 09:58:02;;;;;;;6.53;5.10;;;;;;;;;;5061860;28;20313;-63
2022/10/14 10:00:31;;;;;;;7.85;5.28;;;;;;;;;;5051812;28;20297;-63
2022/10/14 10:02:58;;;;;;;6.55;4.32;;;;;;;;;;5038318;28;20210;-61
2022/10/14 10:05:31;;;;;;;6.00;4.50;;;;;;;;;;5039485;28;20236;-62
2022/10/14 10:08:09;;;;;;;6.28;4.68;;;;;;;;;;5040891;28;20218;-61
2022/10/14 10:10:39;;;;;;;8.35;5.03;;;;;;;;;;5043802;28;20205;-62
2022/10/14 10:13:22;;;;;;;7.07;4.25;;;;;;;;;;5052342;28;20348;-61
2022/10/14 10:16:01;;;;;;;7.70;4.32;;;;;;;;;;5053077;28;20276;-61
2022/10/14 10:18:28;;;;;;;8.35;4.60;;;;;;;;;;5062724;28;20236;-61
2022/10/14 10:21:05;;;;;;;5.65;4.15;;;;;;;;;;5043670;28;20293;-61
2022/10/14 10:23:34;;;;;;;6.53;3.88;;;;;;;;;;5032416;28;20317;-61
2022/10/14 10:26:15;;;;;;;7.38;3.80;;;;;;;;;;5038103;28;20771;-61
2022/10/14 10:28:47;;;;;;;8.32;4.20;;;;;;;;;;5042606;28;20261;-61
2022/10/14 10:31:31;;;;;;;4.68;3.40;;;;;;;;;;5042540;28;20210;-61
2022/10/14 10:34:01;;;;;;;3.65;3.30;;;;;;;;;;5035924;28;20209;-63
2022/10/14 10:36:43;;;;;;;3.65;3.00;;;;;;;;;;5053424;28;20284;-61
2022/10/14 10:39:13;;;;;;;7.32;4.10;;;;;;;;;;5065359;28;20201;-61
2022/10/14 10:42:00;;;;;;;4.82;3.03;;;;;;;;;;5069722;28;20202;-61
2022/10/14 10:44:28;;;;;;;4.05;2.97;;;;;;;;;;5064689;28;20233;-63
2022/10/14 10:47:14;;;;;;;6.40;3.35;;;;;;;;;;5060967;28;20772;-63
2022/10/14 10:49:53;;;;;;;5.57;3.25;;;;;;;;;;5059064;28;20201;-63
2022/10/14 10:52:40;;;;;;;4.13;3.20;;;;;;;;;;5052760;28;20288;-63
2022/10/14 10:55:30;;;;;;;5.97;4.00;;;;;;;;;;5055929;28;20489;-61
2022/10/14 10:58:03;;;;;;;5.03;3.97;;;;;;;;;;5062376;28;20241;-60
2022/10/14 11:00:43;;;;;;;7.47;3.67;;;;;;;;;;5064293;28;20235;-63
2022/10/14 11:03:31;;;;;;;10.10;5.57;;;;;;;;;;5058994;28;20234;-61
2022/10/14 11:06:06;;;;;;;6.05;3.45;;;;;;;;;;5054537;28;20234;-61
2022/10/14 11:12:12;;;;;;;5.35;3.70;;;;;;;;;;5063157;28;20217;-61
2022/10/14 11:14:40;;;;;;;3.92;3.53;;;;;;;;;;5031703;28;20302;-62
2022/10/14 11:17:08;;;;;;;5.20;3.58;;;;;;;;;;5065509;28;20559;-61
2022/10/14 11:19:42;;;;;;;4.60;3.40;;;;;;;;;;5065099;28;20306;-61
2022/10/14 11:22:27;;;;;;;4.07;3.60;;;;;;;;;;5065213;28;20220;-61
2022/10/14 11:25:18;;;;;;;4.47;3.35;;;;;;;;;;5061036;28;20222;-63
2022/10/14 11:27:51;;;;;;;5.80;3.75;;;;;;;;;;5048716;28;20222;-62
2022/10/14 11:30:20;;;;;;;5.03;3.67;;;;;;;;;;5059391;28;20198;-61
2022/10/14 11:32:58;;;;;;;4.10;3.70;;;;;;;;;;5059235;28;20229;-61
2022/10/14 11:35:34;;;;;;;4.22;3.83;;;;;;;;;;5069446;28;20210;-63
2022/10/14 11:38:26;;;;;;;4.88;3.83;;;;;;;;;;5065217;28;20902;-64
2022/10/14 11:41:03;;;;;;;4.10;3.80;;;;;;;;;;5065653;28;20243;-62
2022/10/14 11:44:07;;;;;;;5.38;4.30;;;;;;;;;;5061743;28;20296;-63
2022/10/14 11:46:38;;;;;;;5.45;3.83;;;;;;;;;;4973217;28;20232;-61
2022/10/14 11:49:09;;;;;;;5.85;4.20;;;;;;;;;;5043899;28;20198;-62
2022/10/14 11:51:48;;;;;;;3.97;3.67;;;;;;;;;;5064416;28;20205;-63
2022/10/14 11:54:22;;;;;;;3.83;3.38;;;;;;;;;;5062587;28;20236;-62
2022/10/14 11:56:54;;;;;;;4.22;3.83;;;;;;;;;;5063506;28;20653;-62
2022/10/14 11:59:21;;;;;;;5.20;3.83;;;;;;;;;;5082498;28;20603;-62
2022/10/14 12:01:51;;;;;;;4.00;3.60;;;;;;;;;;5059935;28;20298;-63
2022/10/14 12:04:30;;;;;;;4.32;3.50;;;;;;;;;;5065821;28;20293;-61
2022/10/14 12:07:05;;;;;;;3.75;3.33;;;;;;;;;;5060098;28;20818;-61
2022/10/14 12:09:37;;;;;;;4.90;3.20;;;;;;;;;;5075244;28;20224;-62
2022/10/14 12:12:07;;;;;;;3.20;2.90;;;;;;;;;;5060517;28;20222;-63
2022/10/14 12:14:49;;;;;;;3.50;2.92;;;;;;;;;;5059427;28;20292;-63
2022/10/14 12:17:25;;;;;;;3.30;3.00;;;;;;;;;;5067213;28;20225;-61
2022/10/14 12:19:53;;;;;;;3.80;3.10;;;;;;;;;;5062002;28;20221;-63
2022/10/14 12:22:25;;;;;;;5.82;3.03;;;;;;;;;;5067179;28;20288;-62
2022/10/14 12:24:53;;;;;;;4.70;3.30;;;;;;;;;;5063251;28;20761;-62
2022/10/14 12:27:25;;;;;;;4.30;3.00;;;;;;;;;;5063855;28;20312;-63
2022/10/14 12:29:57;;;;;;;3.47;3.15;;;;;;;;;;5062038;28;20214;-63
2022/10/14 12:32:26;;;;;;;3.88;3.22;;;;;;;;;;5052403;28;20202;-63
2022/10/14 12:34:55;;;;;;;4.30;3.38;;;;;;;;;;5058073;28;20208;-63
2022/10/14 12:37:36;;;;;;;5.88;3.30;;;;;;;;;;5062634;28;21456;-63
2022/10/14 12:40:05;;;;;;;4.70;3.80;;;;;;;;;;5065232;28;20205;-61
2022/10/14 12:42:36;;;;;;;3.47;3.17;;;;;;;;;;5066791;28;20593;-64
2022/10/14 12:45:15;;;;;;;3.67;3.38;;;;;;;;;;5065517;28;20243;-60
2022/10/14 12:47:42;;;;;;;3.22;2.78;;;;;;;;;;5062565;28;20233;-62
2022/10/14 12:50:13;;;;;;;3.38;3.08;;;;;;;;;;5060801;28;20201;-63
2022/10/14 12:52:44;;;;;;;3.10;2.83;;;;;;;;;;5060704;28;20205;-61
2022/10/14 12:55:17;;;;;;;3.13;2.90;;;;;;;;;;5082796;28;20205;-63
2022/10/14 12:57:51;;;;;;;3.80;3.17;;;;;;;;;;5058532;28;20293;-63
2022/10/14 13:00:22;;;;;;;3.65;2.80;;;;;;;;;;5063406;28;20505;-61
2022/10/14 13:02:51;;;;;;;3.80;2.90;;;;;;;;;;5057646;28;20214;-62
2022/10/14 13:05:27;;;;;;;2.88;2.67;;;;;;;;;;5050425;28;20226;-60
2022/10/14 13:08:13;;;;;;;3.40;3.10;;;;;;;;;;5057807;28;20312;-63
2022/10/14 13:10:49;;;;;;;3.08;2.88;;;;;;;;;;5056506;28;21015;-62
2022/10/14 13:13:52;;;;;;;3.30;3.03;;;;;;;;;;5058786;28;20233;-63
2022/10/14 13:16:23;;;;;;;3.45;2.80;;;;;;;;;;5063149;28;20213;-62
2022/10/14 13:18:56;;;;;;;4.20;3.35;;;;;;;;;;5050541;28;20234;-61
2022/10/14 13:21:36;;;;;;;3.65;3.00;;;;;;;;;;5058976;28;20652;-61
2022/10/14 13:24:10;;;;;;;4.18;3.35;;;;;;;;;;5055185;28;20205;-62
2022/10/14 13:26:40;;;;;;;3.95;3.35;;;;;;;;;;5047263;28;20237;-63
2022/10/14 13:29:19;;;;;;;3.38;3.08;;;;;;;;;;5032588;28;20684;-61
2022/10/14 13:31:58;;;;;;;3.53;3.08;;;;;;;;;;5046114;28;20206;-62
2022/10/14 13:34:33;;;;;;;4.65;3.38;;;;;;;;;;5050330;28;20284;-63
2022/10/14 13:37:37;;;;;;;5.10;3.60;;;;;;;;;;5054424;28;20224;-63
2022/10/14 13:40:21;;;;;;;3.95;3.65;;;;;;;;;;4988506;28;20397;-62
2022/10/14 13:42:53;;;;;;;4.18;3.88;;;;;;;;;;5059543;28;20297;-62
2022/10/14 13:45:23;;;;;;;4.18;3.78;;;;;;;;;;5064499;28;20718;-61
2022/10/14 13:47:54;;;;;;;4.53;4.07;;;;;;;;;;5066910;28;20221;-62
2022/10/14 13:50:23;;;;;;;4.43;4.03;;;;;;;;;;5067791;28;20197;-62
2022/10/14 13:52:56;;;;;;;4.43;3.78;;;;;;;;;;5057522;28;20212;-63
2022/10/14 13:55:25;;;;;;;7.03;4.88;;;;;;;;;;5059507;28;20201;-62
2022/10/14 13:58:19;;;;;;;7.63;4.90;;;;;;;;;;5062429;28;20316;-64
2022/10/14 14:00:58;;;;;;;5.60;4.97;;;;;;;;;;5058972;28;20627;-62
2022/10/14 14:03:26;;;;;;;7.22;5.07;;;;;;;;;;5067931;28;20610;-62
2022/10/14 14:05:53;;;;;;;6.10;5.32;;;;;;;;;;5060607;28;20312;-64
2022/10/14 14:08:23;;;;;;;6.18;5.07;;;;;;;;;;5064252;28;20592;-64
2022/10/14 14:11:08;;;;;;;5.70;5.20;;;;;;;;;;5069277;28;20205;-62
2022/10/14 14:13:47;;;;;;;6.00;5.32;;;;;;;;;;5052689;28;20667;-62
2022/10/14 14:16:25;;;;;;;7.93;5.68;;;;;;;;;;5062656;28;20206;-63
2022/10/14 14:18:53;;;;;;;8.10;6.10;;;;;;;;;;5057675;28;20233;-63
2022/10/14 14:21:34;;;;;;;6.72;5.82;;;;;;;;;;5068543;28;20776;-64
2022/10/14 14:24:08;;;;;;;9.98;5.90;;;;;;;;;;5059595;28;20675;-64
2022/10/14 14:26:36;;;;;;;7.65;6.55;;;;;;;;;;5059665;28;20720;-64
2022/10/14 14:29:13;;;;;;;11.30;7.47;;;;;;;;;;5058931;28;20225;-63
2022/10/14 14:31:42;;;;;;;18.02;11.52;;;;;;;;;;5062664;28;20202;-63
2022/10/14 14:34:30;;;;;;;7.10;6.40;;;;;;;;;;5064172;28;20268;-63
2022/10/14 14:36:59;;;;;;;8.90;7.30;;;;;;;;;;5067552;28;20316;-64
2022/10/14 14:39:54;;;;;;;8.48;7.15;;;;;;;;;;5065560;28;20224;-62
2022/10/14 14:42:23;;;;;;;6.68;5.95;;;;;;;;;;5063029;28;20288;-63
2022/10/14 14:44:50;;;;;;;6.53;5.93;;;;;;;;;;5059644;28;20238;-63
2022/10/14 14:47:18;;;;;;;7.20;6.60;;;;;;;;;;5050981;28;20899;-62
2022/10/14 14:49:46;;;;;;;9.23;6.05;;;;;;;;;;5065689;28;20309;-61
2022/10/14 14:52:13;;;;;;;6.95;5.95;;;;;;;;;;5063081;28;20193;-62
2022/10/14 14:54:45;;;;;;;19.25;6.32;;;;;;;;;;5064731;28;20284;-63
2022/10/14 14:57:15;;;;;;;6.78;5.68;;;;;;;;;;5061342;28;20280;-63